Detall de PIREP

Printer-friendly versionPDF version

[2014/02/21 17:21:00]
Flight IATA:CT2315
Pilot Number:044
Company ICAO:CAT
Aircraft Type:F100/A
PAX:100
Aircraft Registration:PFJ
Departing Airport: LIPZ
Destination Airport: LIEA
Alternate Airport:LIEO
Online: VATSIM
Route:CHI UM167 FRZ UL12 ELB UQ125 ROMPO UL5 MINKA
Flight Level:F310
No Slew and time accel
No pause
Crash detect
Detect pilot in Cockpit between each 30 and 45 minutes
17:21 Zero fuel Weight: 81825 Lbs, Fuel Weight: 9488 Lbs
17:21 VATSIM:LIPZ 211650Z 16004KT 9999 SCT070 11/08 Q1010
17:21 VATSIM:LIEA 211650Z 19009KT 9999 FEW014 SCT025 13/11 Q1015
17:21 VOICE CATALONIAN
17:21 Parking Brakes off
17:28 Take-off
17:28 Take off Weight: 90891 Lbs
17:28 Wind: 160º @ 004 Knots Heading: 221º
17:28 POS N45º 29´ 59´´ E012º 20´ 41´´
17:28 Flaps:1 at 185 Knots
17:28 Gear Up: 192 Knots
17:28 Flaps:0 at 203 Knots
17:43 Wind:087º@005 Knots Heading: 218º Ground Speed: 340 Knots Altitude 27598 ft
17:44 TOC
17:44 Fuel Weight: 7134 Lb
17:58 Wind:238º@006 Knots Heading: 343º Ground Speed: 418 Knots Altitude 30958 ft
18:13 Wind:144º@009 Knots Heading: 194º Ground Speed: 413 Knots Altitude 30971 ft
18:15 TOD
18:15 Fuel Weight: 4876 Lb
18:28 Wind:222º@005 Knots Heading: 247º Ground Speed: 277 Knots Altitude 9022 ft
18:38 Flaps:1 at 202 Knots
18:40 Flaps:2 at 164 Knots
18:40 Flaps:3 at 157 Knots
18:41 Gear Down: 152 Knots
18:42 Flaps:4 at 141 Knots
18:43 Wind:240º@006 Knots Heading: 205º Ground Speed: 128 Knots Altitude 1040 ft
18:44 TouchDown:Rate -409 ft/min Speed: 110 Knots
18:44 VATSIM:LIEA 211820Z 24006KT 9999 FEW014 SCT025 13/12 Q1015
18:44 Land
18:44 Wind:240º@006 Knots
18:44 Heading: 204º
18:44 Flight Duration: 01:16
18:44 Landing Weight: 85474 Lbs
18:44 POS N40º 37´ 47´´ E008º 17´ 22´´
18:44 Parking brakes on
18:44 Block to Block Duration: 01:23
18:44 Final Fuel: 3648 Lbls
18:44 Spent Fuel: 5839 Lbls
18:44 Flight Length: 425 NM
18:44 TOD Land Length: 132 NM

Exportar CSV

Powered by Drupal - Modified by Danger4k